createdAt,value
2023-04-30T00:02:18.873Z,100917.69
2023-04-30T00:04:45.870Z,100919.38
2023-04-30T00:07:12.717Z,100917.03
2023-04-30T00:09:39.967Z,100910.72
2023-04-30T00:12:06.774Z,100909.53
2023-04-30T00:14:33.579Z,100905.22
2023-04-30T00:17:00.480Z,100905.22
2023-04-30T00:19:27.792Z,100900.38
2023-04-30T00:21:54.512Z,100903.22
2023-04-30T00:24:22.584Z,100893.88
2023-04-30T00:26:49.750Z,100900.38
2023-04-30T00:29:16.598Z,100871.56
2023-04-30T00:31:43.685Z,100856.88
2023-04-30T00:34:10.475Z,100888.56
2023-04-30T00:36:37.188Z,100871.72
2023-04-30T00:39:04.343Z,100873.88
2023-04-30T00:41:31.122Z,100874.88
2023-04-30T00:43:58.991Z,100851.38
2023-04-30T00:46:26.009Z,100865.72
2023-04-30T00:48:52.869Z,100867.38
2023-04-30T00:51:19.696Z,100868.22
2023-04-30T00:53:46.607Z,100863.41
2023-04-30T00:56:13.756Z,100859.38
2023-04-30T00:58:40.466Z,100852.88
2023-04-30T01:01:07.375Z,100870.72
2023-04-30T01:03:36.551Z,100862.06
2023-04-30T01:06:03.566Z,100856.03
2023-04-30T01:08:31.989Z,100844.38
2023-04-30T01:10:58.720Z,100856.75
2023-04-30T01:13:30.672Z,100854.75
2023-04-30T01:16:00.986Z,100850.22
2023-04-30T01:18:42.470Z,100828.75
2023-04-30T01:21:09.402Z,100848.25
2023-04-30T01:24:17.193Z,100834.91
2023-04-30T01:27:20.992Z,100823.56
2023-04-30T01:29:47.709Z,100834.09
2023-04-30T01:32:14.665Z,100822.75
2023-04-30T01:34:41.629Z,100819.91
2023-04-30T01:37:52.732Z,100784.78
2023-04-30T01:40:26.808Z,100802.41
2023-04-30T01:43:05.736Z,100799.56
2023-04-30T01:46:01.591Z,100801.59
2023-04-30T01:48:43.400Z,100788.91
2023-04-30T01:51:28.428Z,100793.25
2023-04-30T01:54:01.118Z,100761.28
2023-04-30T01:56:32.360Z,100784.25
2023-04-30T01:58:59.777Z,100778.91
2023-04-30T02:01:32.019Z,100713.69
2023-04-30T02:03:59.219Z,100775.94
2023-04-30T02:06:30.331Z,100771.75
2023-04-30T02:09:02.639Z,100757.94
2023-04-30T02:11:29.993Z,100772.44
2023-04-30T02:13:56.940Z,100781.28
2023-04-30T02:16:24.256Z,100768.94
2023-04-30T02:18:51.565Z,100763.78
2023-04-30T02:21:18.716Z,100774.94
2023-04-30T02:23:45.442Z,100777.13
2023-04-30T02:26:12.174Z,100777.09
2023-04-30T02:28:39.168Z,100770.44
2023-04-30T02:31:06.143Z,100682.06
2023-04-30T02:33:32.910Z,100759.31
2023-04-30T02:36:00.678Z,100763.44
2023-04-30T02:38:27.496Z,100740.97
2023-04-30T02:40:54.388Z,100760.09
2023-04-30T02:43:21.203Z,100765.09
2023-04-30T02:45:48.391Z,100765.09
2023-04-30T02:48:15.404Z,100770.28
2023-04-30T02:50:42.188Z,100767.78
2023-04-30T02:53:08.951Z,100753.13
2023-04-30T02:55:35.770Z,100773.78
2023-04-30T02:58:02.594Z,100728.50
2023-04-30T03:00:29.386Z,100746.13
2023-04-30T03:02:56.390Z,100744.47
2023-04-30T03:05:23.924Z,100751.13
2023-04-30T03:07:50.809Z,100755.66
2023-04-30T03:10:19.260Z,100761.13
2023-04-30T03:12:46.338Z,100750.47
2023-04-30T03:15:13.173Z,100756.81
2023-04-30T03:17:40.053Z,100684.50
2023-04-30T03:20:07.717Z,100750.47
2023-04-30T03:22:34.436Z,100759.63
2023-04-30T03:25:01.391Z,100753.78
2023-04-30T03:27:28.314Z,100753.78
2023-04-30T03:29:55.509Z,100747.66
2023-04-30T03:32:22.784Z,100742.31
2023-04-30T03:34:50.223Z,100744.63
2023-04-30T03:37:17.037Z,100688.47
2023-04-30T03:39:43.758Z,100747.63
2023-04-30T03:42:10.721Z,100751.94
2023-04-30T03:44:39.234Z,100754.59
2023-04-30T03:47:06.063Z,100744.97
2023-04-30T03:49:33.324Z,100749.13
2023-04-30T03:52:00.058Z,100744.63
2023-04-30T03:54:26.815Z,100747.78
2023-04-30T03:56:53.693Z,100747.25
2023-04-30T03:59:20.968Z,100737.09
2023-04-30T04:01:47.839Z,100693.31
2023-04-30T04:04:17.867Z,100740.28
2023-04-30T04:06:44.792Z,100737.75
2023-04-30T04:09:11.662Z,100738.41
2023-04-30T04:11:38.552Z,100746.41
2023-04-30T04:14:05.464Z,100715.94
2023-04-30T04:16:32.269Z,100746.06
2023-04-30T04:18:59.295Z,100756.22
2023-04-30T04:21:26.014Z,100747.72
2023-04-30T04:23:52.857Z,100737.72
2023-04-30T04:26:21.782Z,100749.56
2023-04-30T04:28:48.550Z,100756.34
2023-04-30T04:31:16.075Z,100754.19
2023-04-30T04:33:42.912Z,100756.00
2023-04-30T04:36:10.305Z,100732.00
2023-04-30T04:38:37.057Z,100764.66
2023-04-30T04:41:03.864Z,100767.63
2023-04-30T04:43:30.983Z,100766.47
2023-04-30T04:45:57.845Z,100745.47
2023-04-30T04:48:24.745Z,100761.31
2023-04-30T04:50:51.587Z,100755.47
2023-04-30T04:53:18.307Z,100758.28
2023-04-30T04:55:45.106Z,100747.41
2023-04-30T04:58:11.846Z,100752.47
2023-04-30T05:00:39.486Z,100705.97
2023-04-30T05:03:06.306Z,100757.25
2023-04-30T05:05:33.140Z,100720.28
2023-04-30T05:07:59.920Z,100724.91
2023-04-30T05:10:26.631Z,100735.75
2023-04-30T05:12:53.338Z,100732.94
2023-04-30T05:15:20.275Z,100756.06
2023-04-30T05:17:47.105Z,100724.22
2023-04-30T05:20:13.901Z,100668.00
2023-04-30T05:22:40.842Z,100713.66
2023-04-30T05:25:07.993Z,100736.03
2023-04-30T05:27:34.774Z,100741.97
2023-04-30T05:30:01.837Z,100769.13
2023-04-30T05:32:28.611Z,100793.25
2023-04-30T05:34:55.821Z,100798.19
2023-04-30T05:37:23.071Z,100793.72
2023-04-30T05:39:49.836Z,100796.84
2023-04-30T05:42:16.626Z,100793.53
2023-04-30T05:44:43.504Z,100773.16
2023-04-30T05:47:10.217Z,100802.31
2023-04-30T05:49:36.956Z,100806.31
2023-04-30T05:52:04.060Z,100791.66
2023-04-30T05:54:31.200Z,100769.56
2023-04-30T05:56:58.001Z,100813.13
2023-04-30T05:59:25.107Z,100806.63
2023-04-30T06:01:52.425Z,100812.59
2023-04-30T06:04:19.184Z,100701.16
2023-04-30T06:06:46.022Z,100822.72
2023-04-30T06:09:12.864Z,100823.25
2023-04-30T06:11:42.257Z,100826.19
2023-04-30T06:14:09.541Z,100828.25
2023-04-30T06:16:36.394Z,100824.53
2023-04-30T06:19:03.408Z,100841.41
2023-04-30T06:21:30.237Z,100848.94
2023-04-30T06:23:57.081Z,100852.44
2023-04-30T06:26:23.908Z,100861.63
2023-04-30T06:28:50.629Z,100834.13
2023-04-30T06:31:17.497Z,100854.53
2023-04-30T06:33:44.405Z,100868.38
2023-04-30T06:36:11.245Z,100856.59
2023-04-30T06:38:38.059Z,100859.31
2023-04-30T06:41:04.967Z,100817.13
2023-04-30T06:43:32.383Z,100819.16
2023-04-30T06:45:59.164Z,100839.31
2023-04-30T06:48:26.149Z,100869.00
2023-04-30T06:50:53.015Z,100859.38
2023-04-30T06:53:19.945Z,100834.16
2023-04-30T06:55:47.201Z,100865.22
2023-04-30T06:58:14.089Z,100868.53
2023-04-30T07:00:40.892Z,100870.22
2023-04-30T07:03:08.316Z,100860.84
2023-04-30T07:05:35.205Z,100871.81
2023-04-30T07:08:02.413Z,100873.53
2023-04-30T07:10:29.792Z,100877.72
2023-04-30T07:12:56.737Z,100855.34
2023-04-30T07:15:23.801Z,100850.72
2023-04-30T07:17:50.754Z,100886.50
2023-04-30T07:20:17.727Z,100885.38
2023-04-30T07:22:46.171Z,100888.19
2023-04-30T07:25:13.824Z,100889.03
2023-04-30T07:27:41.004Z,100879.19
2023-04-30T07:30:10.364Z,100866.00
2023-04-30T07:32:37.658Z,100892.38
2023-04-30T07:35:05.035Z,100890.91
2023-04-30T07:37:34.203Z,100870.22
2023-04-30T07:40:02.323Z,100893.59
2023-04-30T07:42:29.179Z,100881.63
2023-04-30T07:44:56.004Z,100865.78
2023-04-30T07:47:22.879Z,100860.59
2023-04-30T07:49:49.875Z,100854.97
2023-04-30T07:52:16.606Z,100865.34
2023-04-30T07:54:43.425Z,100865.50
2023-04-30T07:57:10.308Z,100860.03
2023-04-30T07:59:37.189Z,100857.19
2023-04-30T08:02:04.093Z,100866.38
2023-04-30T08:04:30.930Z,100848.91
2023-04-30T08:06:57.843Z,100859.72
2023-04-30T08:09:24.564Z,100855.22
2023-04-30T08:11:51.397Z,100820.59
2023-04-30T08:14:18.215Z,100801.25
2023-04-30T08:16:44.984Z,100843.41
2023-04-30T08:19:11.802Z,100842.88
2023-04-30T08:21:38.869Z,100791.41
2023-04-30T08:24:05.705Z,100828.81
2023-04-30T08:26:32.437Z,100827.00
2023-04-30T08:28:59.243Z,100829.78
2023-04-30T08:31:26.116Z,100815.75
2023-04-30T08:33:52.963Z,100812.91
2023-04-30T08:36:19.950Z,100829.00
2023-04-30T08:38:46.782Z,100819.28
2023-04-30T08:41:14.353Z,100821.41
2023-04-30T08:43:41.642Z,100789.22
2023-04-30T08:46:09.721Z,100781.53
2023-04-30T08:48:36.493Z,100817.72
2023-04-30T08:51:03.947Z,100816.47
2023-04-30T08:53:31.634Z,100812.47
2023-04-30T08:55:58.537Z,100823.72
2023-04-30T08:58:25.496Z,100830.66
2023-04-30T09:00:52.384Z,100822.91
2023-04-30T09:03:19.316Z,100813.44
2023-04-30T09:05:46.325Z,100831.41
2023-04-30T09:08:18.755Z,100819.03
2023-04-30T09:10:45.615Z,100826.91
2023-04-30T09:13:12.442Z,100828.97
2023-04-30T09:15:41.748Z,100808.00
2023-04-30T09:18:12.953Z,100794.47
2023-04-30T09:20:53.920Z,100817.47
2023-04-30T09:23:20.898Z,100820.34
2023-04-30T09:25:47.628Z,100798.03
2023-04-30T09:28:14.430Z,100731.75
2023-04-30T09:30:42.928Z,100804.88
2023-04-30T09:33:12.021Z,100816.97
2023-04-30T09:35:40.382Z,100811.19
2023-04-30T09:38:07.274Z,100816.88
2023-04-30T09:40:43.223Z,100802.56
2023-04-30T09:43:10.104Z,100797.81
2023-04-30T09:45:44.788Z,100796.56
2023-04-30T09:48:17.036Z,100812.69
2023-04-30T09:50:48.036Z,100798.16
2023-04-30T09:53:14.959Z,100773.75
2023-04-30T09:55:44.297Z,100778.84
2023-04-30T09:58:11.459Z,100794.66
2023-04-30T10:00:39.958Z,100744.09
2023-04-30T10:03:08.801Z,100783.56
2023-04-30T10:05:43.339Z,100769.00
2023-04-30T10:08:19.982Z,100771.31
2023-04-30T10:10:47.781Z,100758.53
2023-04-30T10:13:20.232Z,100784.00
2023-04-30T10:15:50.672Z,100771.69
2023-04-30T10:18:37.027Z,100759.25
2023-04-30T10:21:04.414Z,100770.81
2023-04-30T10:23:31.278Z,100739.81
2023-04-30T10:25:58.119Z,100773.66
2023-04-30T10:28:25.497Z,100754.25
2023-04-30T10:30:52.210Z,100767.28
2023-04-30T10:33:22.833Z,100746.44
2023-04-30T10:35:54.166Z,100758.19
2023-04-30T10:38:28.225Z,100734.31
2023-04-30T10:41:03.912Z,100756.13
2023-04-30T10:43:30.887Z,100766.25
2023-04-30T10:45:58.862Z,100752.50
2023-04-30T10:48:27.057Z,100735.69
2023-04-30T10:50:56.560Z,100714.84
2023-04-30T10:53:25.472Z,100690.13
2023-04-30T10:55:58.480Z,100744.69
2023-04-30T10:58:30.204Z,100755.56
2023-04-30T11:01:12.279Z,100736.84
2023-04-30T11:03:41.117Z,100733.69
2023-04-30T11:06:14.959Z,100730.88
2023-04-30T11:08:48.111Z,100732.19
2023-04-30T11:11:18.790Z,100707.56
2023-04-30T11:13:45.860Z,100741.38
2023-04-30T11:16:12.734Z,100729.94
2023-04-30T11:18:46.113Z,100722.63
2023-04-30T11:21:13.346Z,100714.88
2023-04-30T11:23:44.630Z,100711.72
2023-04-30T11:26:11.578Z,100693.22
2023-04-30T11:28:38.524Z,100721.25
2023-04-30T11:31:05.640Z,100713.88
2023-04-30T11:33:33.110Z,100670.69
2023-04-30T11:36:00.754Z,100692.53
2023-04-30T11:38:29.037Z,100694.66
2023-04-30T11:40:57.074Z,100681.94
2023-04-30T11:43:34.141Z,100690.19
2023-04-30T11:46:09.571Z,100662.22
2023-04-30T11:48:38.365Z,100682.75
2023-04-30T11:51:14.306Z,100697.59
2023-04-30T11:53:41.680Z,100701.72
2023-04-30T11:56:08.710Z,100693.47
2023-04-30T11:58:38.175Z,100690.59
2023-04-30T12:01:06.721Z,100626.00
2023-04-30T12:03:33.927Z,100678.63
2023-04-30T12:06:01.762Z,100693.06
2023-04-30T12:08:28.847Z,100686.50
2023-04-30T12:10:55.648Z,100668.81
2023-04-30T12:13:22.625Z,100678.66
2023-04-30T12:15:59.977Z,100656.41
2023-04-30T12:18:27.291Z,100671.63
2023-04-30T12:20:54.412Z,100661.28
2023-04-30T12:23:21.237Z,100647.16
2023-04-30T12:25:48.127Z,100658.09
2023-04-30T12:28:14.893Z,100660.34
2023-04-30T12:30:41.797Z,100655.16
2023-04-30T12:33:10.366Z,100645.38
2023-04-30T12:35:37.520Z,100636.03
2023-04-30T12:38:05.686Z,100624.75
2023-04-30T12:40:32.622Z,100630.72
2023-04-30T12:43:07.144Z,100632.94
2023-04-30T12:45:53.504Z,100637.66
2023-04-30T12:48:24.683Z,100630.66
2023-04-30T12:50:55.692Z,100621.25
2023-04-30T12:53:23.215Z,100621.19
2023-04-30T12:56:09.764Z,100619.44
2023-04-30T12:58:38.235Z,100628.84
2023-04-30T13:01:06.252Z,100637.94
2023-04-30T13:03:33.186Z,100610.81
2023-04-30T13:06:02.881Z,100629.66
2023-04-30T13:08:29.776Z,100632.28
2023-04-30T13:10:56.565Z,100619.75
2023-04-30T13:13:23.318Z,100624.81
2023-04-30T13:15:50.129Z,100625.91
2023-04-30T13:18:17.047Z,100632.56
2023-04-30T13:20:44.016Z,100631.63
2023-04-30T13:23:12.121Z,100628.94
2023-04-30T13:25:39.155Z,100629.88
2023-04-30T13:28:05.920Z,100621.78
2023-04-30T13:30:32.696Z,100626.78
2023-04-30T13:33:00.004Z,100593.47
2023-04-30T13:35:27.534Z,100616.34
2023-04-30T13:37:54.887Z,100588.03
2023-04-30T13:40:21.940Z,100598.06
2023-04-30T13:42:49.280Z,100579.69
2023-04-30T13:45:16.467Z,100608.69
2023-04-30T13:47:43.496Z,100598.13
2023-04-30T13:50:10.910Z,100598.84
2023-04-30T13:52:37.680Z,100569.69
2023-04-30T13:55:05.968Z,100591.84
2023-04-30T13:57:35.542Z,100590.91
2023-04-30T14:00:02.514Z,100580.91
2023-04-30T14:02:29.678Z,100572.50
2023-04-30T14:05:05.288Z,100581.88
2023-04-30T14:07:33.323Z,100576.09
2023-04-30T14:10:00.097Z,100576.81
2023-04-30T14:12:26.850Z,100565.16
2023-04-30T14:14:53.793Z,100577.69
2023-04-30T14:17:20.810Z,100571.84
2023-04-30T14:19:47.641Z,100554.44
2023-04-30T14:22:14.817Z,100572.44
2023-04-30T14:24:41.524Z,100540.63
2023-04-30T14:27:08.368Z,100549.31
2023-04-30T14:29:37.490Z,100562.31
2023-04-30T14:32:06.169Z,100551.50
2023-04-30T14:34:33.122Z,100563.59
2023-04-30T14:37:01.958Z,100570.84
2023-04-30T14:39:28.726Z,100575.63
2023-04-30T14:41:55.477Z,100571.44
2023-04-30T14:44:25.173Z,100561.47
2023-04-30T14:46:52.223Z,100536.50
2023-04-30T14:49:20.125Z,100553.44
2023-04-30T14:51:47.050Z,100560.06
2023-04-30T14:54:13.837Z,100560.00
2023-04-30T14:56:41.216Z,100507.00
2023-04-30T14:59:08.073Z,100562.91
2023-04-30T15:01:34.957Z,100545.44
2023-04-30T15:04:02.423Z,100526.94
2023-04-30T15:06:29.290Z,100553.59
2023-04-30T15:08:56.284Z,100552.50
2023-04-30T15:11:24.271Z,100537.16
2023-04-30T15:13:51.111Z,100560.22
2023-04-30T15:16:18.255Z,100541.56
2023-04-30T15:18:45.108Z,100554.97
2023-04-30T15:21:12.651Z,100551.59
2023-04-30T15:23:39.407Z,100555.16
2023-04-30T15:26:06.518Z,100528.16
2023-04-30T15:28:33.321Z,100521.34
2023-04-30T15:31:06.424Z,100523.38
2023-04-30T15:33:34.850Z,100534.38
2023-04-30T15:36:01.707Z,100540.19
2023-04-30T15:38:28.436Z,100531.34
2023-04-30T15:40:55.368Z,100536.53
2023-04-30T15:43:22.165Z,100534.50
2023-04-30T15:45:49.583Z,100503.16
2023-04-30T15:48:16.426Z,100533.91
2023-04-30T15:50:43.222Z,100521.84
2023-04-30T15:53:10.109Z,100538.78
2023-04-30T15:55:37.343Z,100533.44
2023-04-30T15:58:04.720Z,100526.91
2023-04-30T16:00:31.637Z,100519.53
2023-04-30T16:02:58.490Z,100509.16
2023-04-30T16:05:25.461Z,100515.31
2023-04-30T16:07:53.561Z,100521.66
2023-04-30T16:10:20.516Z,100482.66
2023-04-30T16:12:47.534Z,100527.97
2023-04-30T16:15:15.335Z,100520.59
2023-04-30T16:17:42.116Z,100502.78
2023-04-30T16:20:09.433Z,100509.72
2023-04-30T16:22:37.414Z,100485.03
2023-04-30T16:25:04.645Z,100525.47
2023-04-30T16:27:31.525Z,100518.94
2023-04-30T16:29:58.500Z,100516.47
2023-04-30T16:32:25.515Z,100522.53
2023-04-30T16:34:54.707Z,100514.34
2023-04-30T16:37:21.451Z,100513.88
2023-04-30T16:39:48.186Z,100519.13
2023-04-30T16:42:15.053Z,100512.97
2023-04-30T16:44:41.855Z,100511.31
2023-04-30T16:47:09.301Z,100481.41
2023-04-30T16:49:36.133Z,100518.06
2023-04-30T16:52:03.256Z,100508.41
2023-04-30T16:54:30.079Z,100503.75
2023-04-30T16:56:57.011Z,100519.50
2023-04-30T16:59:24.839Z,100518.25
2023-04-30T17:01:51.670Z,100521.44
2023-04-30T17:04:18.627Z,100525.47
2023-04-30T17:06:46.635Z,100518.13
2023-04-30T17:09:13.507Z,100517.31
2023-04-30T17:11:40.309Z,100517.31
2023-04-30T17:14:07.065Z,100516.13
2023-04-30T17:16:33.869Z,100505.94
2023-04-30T17:19:01.464Z,100509.59
2023-04-30T17:21:29.839Z,100501.06
2023-04-30T17:23:56.718Z,100463.34
2023-04-30T17:26:25.203Z,100453.94
2023-04-30T17:28:51.935Z,100496.09
2023-04-30T17:31:19.306Z,100458.34
2023-04-30T17:33:46.496Z,100499.09
2023-04-30T17:36:13.410Z,100494.13
2023-04-30T17:38:40.170Z,100494.38
2023-04-30T17:41:07.038Z,100482.06
2023-04-30T17:43:33.859Z,100497.72
2023-04-30T17:46:00.648Z,100493.56
2023-04-30T17:48:27.533Z,100503.63
2023-04-30T17:50:54.642Z,100495.59
2023-04-30T17:53:21.373Z,100504.84
2023-04-30T17:55:48.673Z,100505.09
2023-04-30T17:58:16.083Z,100490.69
2023-04-30T18:00:43.595Z,100507.94
2023-04-30T18:03:10.895Z,100491.38
2023-04-30T18:05:39.288Z,100513.28
2023-04-30T18:08:06.654Z,100509.97
2023-04-30T18:10:33.532Z,100503.47
2023-04-30T18:13:00.410Z,100503.72
2023-04-30T18:15:27.717Z,100484.53
2023-04-30T18:17:54.721Z,100497.56
2023-04-30T18:20:22.161Z,100445.00
2023-04-30T18:22:49.120Z,100506.31
2023-04-30T18:25:17.488Z,100467.00
2023-04-30T18:27:44.456Z,100479.53
2023-04-30T18:30:12.708Z,100452.91
2023-04-30T18:32:39.824Z,100482.97
2023-04-30T18:35:06.932Z,100498.56
2023-04-30T18:37:33.992Z,100496.56
2023-04-30T18:40:00.957Z,100482.72
2023-04-30T18:42:28.546Z,100505.09
2023-04-30T18:44:56.477Z,100486.03
2023-04-30T18:47:23.901Z,100509.34
2023-04-30T18:49:50.750Z,100510.53
2023-04-30T18:52:17.498Z,100502.03
2023-04-30T18:54:44.641Z,100497.53
2023-04-30T18:57:14.922Z,100497.53
2023-04-30T18:59:42.184Z,100499.56
2023-04-30T19:02:09.698Z,100507.72
2023-04-30T19:04:36.904Z,100505.56
2023-04-30T19:07:04.116Z,100491.13
2023-04-30T19:09:30.930Z,100505.81
2023-04-30T19:11:58.088Z,100507.22
2023-04-30T19:14:26.332Z,100499.75
2023-04-30T19:16:53.408Z,100483.50
2023-04-30T19:19:20.211Z,100524.91
2023-04-30T19:21:47.073Z,100512.59
2023-04-30T19:24:13.988Z,100516.16
2023-04-30T19:26:42.782Z,100512.44
2023-04-30T19:29:09.529Z,100491.44
2023-04-30T19:31:36.624Z,100529.81
2023-04-30T19:34:03.927Z,100532.41
2023-04-30T19:36:30.671Z,100534.63
2023-04-30T19:38:57.674Z,100532.66
2023-04-30T19:41:24.597Z,100532.03
2023-04-30T19:43:53.582Z,100541.94
2023-04-30T19:46:21.385Z,100542.53
2023-04-30T19:48:48.209Z,100552.72
2023-04-30T19:51:15.392Z,100533.16
2023-04-30T19:53:42.426Z,100504.03
2023-04-30T19:56:09.754Z,100557.38
2023-04-30T19:58:36.541Z,100558.41
2023-04-30T20:01:03.703Z,100534.72
2023-04-30T20:03:30.676Z,100566.97
2023-04-30T20:05:58.436Z,100509.34
2023-04-30T20:08:25.418Z,100571.34
2023-04-30T20:10:52.282Z,100572.03
2023-04-30T20:13:21.069Z,100578.56
2023-04-30T20:15:48.761Z,100584.09
2023-04-30T20:18:15.580Z,100583.09
2023-04-30T20:20:42.393Z,100588.59
2023-04-30T20:23:16.395Z,100565.53
2023-04-30T20:25:46.779Z,100566.53
2023-04-30T20:28:14.613Z,100588.94
2023-04-30T20:30:44.820Z,100594.00
2023-04-30T20:33:12.366Z,100595.81
2023-04-30T20:35:40.880Z,100592.06
2023-04-30T20:38:08.544Z,100622.84
2023-04-30T20:40:35.337Z,100641.69
2023-04-30T20:43:02.151Z,100613.09
2023-04-30T20:45:29.015Z,100634.38
2023-04-30T20:47:56.091Z,100652.66
2023-04-30T20:50:22.911Z,100653.38
2023-04-30T20:52:49.697Z,100650.03
2023-04-30T20:55:16.460Z,100600.66
2023-04-30T20:57:43.407Z,100637.06
2023-04-30T21:00:10.843Z,100611.13
2023-04-30T21:02:37.918Z,100643.22
2023-04-30T21:05:06.175Z,100611.31
2023-04-30T21:07:34.686Z,100663.72
2023-04-30T21:10:02.269Z,100651.88
2023-04-30T21:12:29.134Z,100610.84
2023-04-30T21:14:56.430Z,100652.56
2023-04-30T21:17:23.342Z,100658.88
2023-04-30T21:19:50.100Z,100652.06
2023-04-30T21:22:16.955Z,100652.75
2023-04-30T21:24:44.146Z,100654.75
2023-04-30T21:27:11.140Z,100618.81
2023-04-30T21:29:38.005Z,100630.13
2023-04-30T21:32:05.099Z,100666.72
2023-04-30T21:34:32.260Z,100675.53
2023-04-30T21:37:00.069Z,100641.13
2023-04-30T21:39:27.197Z,100664.88
2023-04-30T21:41:54.026Z,100644.78
2023-04-30T21:44:20.948Z,100647.25
2023-04-30T21:46:47.885Z,100643.59
2023-04-30T21:49:15.432Z,100615.97
2023-04-30T21:51:42.325Z,100657.44
2023-04-30T21:54:09.045Z,100665.75
2023-04-30T21:56:36.714Z,100671.75
2023-04-30T21:59:03.629Z,100616.31
2023-04-30T22:01:30.494Z,100641.63
2023-04-30T22:03:57.395Z,100664.41
2023-04-30T22:06:24.320Z,100665.56
2023-04-30T22:08:51.214Z,100665.94
2023-04-30T22:11:18.523Z,100626.28
2023-04-30T22:13:45.416Z,100637.56
2023-04-30T22:16:12.450Z,100652.59
2023-04-30T22:18:39.951Z,100654.44
2023-04-30T22:21:06.935Z,100650.59
2023-04-30T22:23:33.748Z,100650.59
2023-04-30T22:26:01.323Z,100644.94
2023-04-30T22:28:28.175Z,100646.06
2023-04-30T22:30:59.798Z,100607.66
2023-04-30T22:33:26.718Z,100625.09
2023-04-30T22:35:53.744Z,100606.81
2023-04-30T22:38:21.241Z,100637.41
2023-04-30T22:40:47.952Z,100624.47
2023-04-30T22:43:14.880Z,100601.16
2023-04-30T22:45:41.762Z,100597.00
2023-04-30T22:48:09.854Z,100628.13
2023-04-30T22:50:37.709Z,100632.09
2023-04-30T22:53:04.591Z,100587.34
2023-04-30T22:55:31.732Z,100621.63
2023-04-30T22:58:00.242Z,100614.63
2023-04-30T23:00:27.967Z,100613.78
2023-04-30T23:02:55.079Z,100597.50
2023-04-30T23:05:21.993Z,100615.97
2023-04-30T23:07:49.605Z,100605.50
2023-04-30T23:10:16.879Z,100594.69
2023-04-30T23:12:43.882Z,100519.84
2023-04-30T23:15:10.983Z,100600.34
2023-04-30T23:17:37.780Z,100604.31
2023-04-30T23:20:05.115Z,100552.75
2023-04-30T23:22:31.894Z,100607.31
2023-04-30T23:24:58.677Z,100610.81
2023-04-30T23:27:28.463Z,100604.31
2023-04-30T23:29:56.480Z,100590.50
2023-04-30T23:32:23.643Z,100599.84
2023-04-30T23:34:50.560Z,100589.84
2023-04-30T23:37:17.324Z,100608.97
2023-04-30T23:39:44.100Z,100606.16
2023-04-30T23:42:11.791Z,100601.47
2023-04-30T23:44:38.562Z,100602.81
2023-04-30T23:47:06.710Z,100607.47
2023-04-30T23:49:33.748Z,100609.28
2023-04-30T23:52:00.548Z,100618.06
2023-04-30T23:54:27.392Z,100607.59
2023-04-30T23:56:54.501Z,100616.06
2023-04-30T23:59:22.144Z,100618.72
